createdAt,value
2024-01-28T00:01:55.254Z,-3276.00
2024-01-28T00:04:24.878Z,-3275.90
2024-01-28T00:06:53.131Z,-3276.00
2024-01-28T00:09:21.301Z,-3276.00
2024-01-28T00:11:49.444Z,-3275.90
2024-01-28T00:14:17.565Z,-3275.90
2024-01-28T00:16:45.981Z,-3275.90
2024-01-28T00:19:14.477Z,-3276.10
2024-01-28T00:21:44.153Z,-3275.80
2024-01-28T00:24:12.430Z,-3275.80
2024-01-28T00:26:40.960Z,-3275.80
2024-01-28T00:29:09.469Z,-3275.90
2024-01-28T00:31:37.642Z,-3275.80
2024-01-28T00:34:06.045Z,-3275.70
2024-01-28T00:36:34.267Z,-3275.60
2024-01-28T00:39:04.552Z,-3275.70
2024-01-28T00:41:34.732Z,-3275.80
2024-01-28T00:44:04.530Z,-3275.80
2024-01-28T00:46:33.492Z,-3275.90
2024-01-28T00:49:02.884Z,-3275.80
2024-01-28T00:51:31.257Z,-3275.70
2024-01-28T00:53:59.651Z,-3275.80
2024-01-28T00:56:29.268Z,-3275.80
2024-01-28T00:58:57.620Z,-3275.80
2024-01-28T01:01:25.745Z,-3275.80
2024-01-28T01:03:53.947Z,-3275.80
2024-01-28T01:06:22.585Z,-3275.80
2024-01-28T01:08:51.027Z,-3275.70
2024-01-28T01:11:19.878Z,-3275.90
2024-01-28T01:13:49.335Z,-3275.80
2024-01-28T01:16:18.527Z,-3275.90
2024-01-28T01:18:46.630Z,-3275.90
2024-01-28T01:21:14.772Z,-3275.90
2024-01-28T01:23:43.027Z,-3275.70
2024-01-28T01:26:11.249Z,-3275.60
2024-01-28T01:28:39.385Z,-3275.80
2024-01-28T01:31:08.874Z,-3275.50
2024-01-28T01:33:37.123Z,-3275.60
2024-01-28T01:36:06.806Z,-3275.60
2024-01-28T01:38:34.904Z,-3275.50
2024-01-28T01:41:03.254Z,-3275.50
2024-01-28T01:43:31.563Z,-3275.60
2024-01-28T01:46:00.080Z,-3275.60
2024-01-28T01:48:29.721Z,-3275.60
2024-01-28T01:50:58.452Z,-3275.60
2024-01-28T01:53:26.981Z,-3275.70
2024-01-28T01:55:55.735Z,-3275.70
2024-01-28T01:58:25.162Z,-3275.70
2024-01-28T02:00:53.458Z,-3275.50
2024-01-28T02:03:22.404Z,-3275.70
2024-01-28T02:05:52.165Z,-3275.80
2024-01-28T02:08:20.482Z,-3275.70
2024-01-28T02:10:48.857Z,-3275.70
2024-01-28T02:13:16.979Z,-3275.50
2024-01-28T02:15:45.298Z,-3275.60
2024-01-28T02:18:14.003Z,-3275.70
2024-01-28T02:20:43.333Z,-3275.60
2024-01-28T02:23:17.938Z,-3275.70
2024-01-28T02:25:47.530Z,-3275.80
2024-01-28T02:28:15.813Z,-3275.50
2024-01-28T02:30:44.196Z,-3275.60
2024-01-28T02:33:12.594Z,-3275.90
2024-01-28T02:35:40.770Z,-3275.80
2024-01-28T02:38:08.888Z,-3275.70
2024-01-28T02:40:37.248Z,-3275.70
2024-01-28T02:43:07.099Z,-3275.60
2024-01-28T02:45:35.605Z,-3275.60
2024-01-28T02:48:04.215Z,-3275.80
2024-01-28T02:50:32.486Z,-3275.70
2024-01-28T02:53:00.568Z,-3275.60
2024-01-28T02:55:28.630Z,-3275.70
2024-01-28T02:57:56.761Z,-3275.80
2024-01-28T03:00:26.546Z,-3275.70
2024-01-28T03:02:54.878Z,-3275.90
2024-01-28T03:05:23.029Z,-3276.10
2024-01-28T03:07:51.082Z,-3276.10
2024-01-28T03:10:19.153Z,-3276.20
2024-01-28T03:12:50.729Z,-3276.20
2024-01-28T03:15:19.248Z,-3276.30
2024-01-28T03:17:48.939Z,-3276.40
2024-01-28T03:20:19.479Z,-3276.40
2024-01-28T03:22:47.580Z,-3276.60
2024-01-28T03:25:16.690Z,-3276.40
2024-01-28T03:27:44.989Z,-3276.50
2024-01-28T03:30:13.426Z,-3276.50
2024-01-28T03:32:43.846Z,-3276.40
2024-01-28T03:35:14.060Z,-3276.40
2024-01-28T03:37:42.230Z,-3276.40
2024-01-28T03:40:10.988Z,-3276.30
2024-01-28T03:42:39.160Z,-3276.50
2024-01-28T03:45:10.500Z,-3276.20
2024-01-28T03:47:38.990Z,-3276.30
2024-01-28T03:50:07.967Z,-3276.30
2024-01-28T03:52:38.558Z,-3276.20
2024-01-28T03:55:07.334Z,-3276.20
2024-01-28T03:57:35.424Z,-3276.10
2024-01-28T04:00:04.666Z,-3276.00
2024-01-28T04:02:33.004Z,-3276.30
2024-01-28T04:05:01.439Z,-3276.40
2024-01-28T04:07:29.766Z,-3276.20
2024-01-28T04:09:58.343Z,-3276.20
2024-01-28T04:12:26.500Z,-3276.10
2024-01-28T04:14:54.637Z,-3276.30
2024-01-28T04:17:22.780Z,-3276.30
2024-01-28T04:19:51.139Z,-3276.10
2024-01-28T04:22:19.343Z,-3276.30
2024-01-28T04:24:47.756Z,-3276.40
2024-01-28T04:27:17.339Z,-3276.30
2024-01-28T04:29:45.457Z,-3276.20
2024-01-28T04:32:15.542Z,-3276.20
2024-01-28T04:34:43.868Z,-3276.30
2024-01-28T04:37:12.392Z,-3276.30
2024-01-28T04:39:40.513Z,-3276.30
2024-01-28T04:42:09.042Z,-3276.20
2024-01-28T04:44:38.643Z,-3276.20
2024-01-28T04:47:07.248Z,-3276.30
2024-01-28T04:49:35.448Z,-3276.20
2024-01-28T04:52:03.628Z,-3276.00
2024-01-28T04:54:31.823Z,-3276.10
2024-01-28T04:57:02.247Z,-3276.00
2024-01-28T04:59:30.338Z,-3275.90
2024-01-28T05:02:00.065Z,-3275.70
2024-01-28T05:04:28.353Z,-3275.70
2024-01-28T05:06:56.623Z,-3275.80
2024-01-28T05:09:24.757Z,-3275.80
2024-01-28T05:11:52.859Z,-3275.50
2024-01-28T05:14:21.267Z,-3275.50
2024-01-28T05:16:49.911Z,-3275.40
2024-01-28T05:19:19.522Z,-3275.50
2024-01-28T05:21:47.805Z,-3275.40
2024-01-28T05:24:16.388Z,-3275.40
2024-01-28T05:26:44.700Z,-3275.30
2024-01-28T05:29:12.869Z,-3275.40
2024-01-28T05:31:40.924Z,-3275.30
2024-01-28T05:34:09.070Z,-3275.30
2024-01-28T05:36:38.655Z,-3275.20
2024-01-28T05:39:06.809Z,-3275.20
2024-01-28T05:41:34.985Z,-3275.20
2024-01-28T05:44:03.572Z,-3275.40
2024-01-28T05:46:31.721Z,-3275.20
2024-01-28T05:48:59.934Z,-3275.20
2024-01-28T05:51:28.408Z,-3275.20
2024-01-28T05:53:58.083Z,-3275.30
2024-01-28T05:56:26.418Z,-3275.20
2024-01-28T05:58:54.524Z,-3275.50
2024-01-28T06:01:22.660Z,-3275.20
2024-01-28T06:03:51.196Z,-3275.30
2024-01-28T06:06:19.473Z,-3275.40
2024-01-28T06:08:47.635Z,-3275.40
2024-01-28T06:11:17.056Z,-3275.30
2024-01-28T06:13:45.170Z,-3275.50
2024-01-28T06:16:13.313Z,-3275.50
2024-01-28T06:18:45.034Z,-3275.70
2024-01-28T06:21:14.375Z,-3275.40
2024-01-28T06:23:45.599Z,-3275.60
2024-01-28T06:26:13.661Z,-3275.60
2024-01-28T06:28:44.040Z,-3275.50
2024-01-28T06:31:13.049Z,-3275.70
2024-01-28T06:33:41.203Z,-3275.60
2024-01-28T06:36:09.596Z,-3275.70
2024-01-28T06:38:37.780Z,-3275.80
2024-01-28T06:41:05.964Z,-3275.60
2024-01-28T06:43:34.289Z,-3275.50
2024-01-28T06:46:03.708Z,-3275.70
2024-01-28T06:48:32.649Z,-3275.60
2024-01-28T06:51:00.837Z,-3275.80
2024-01-28T06:53:29.074Z,-3275.70
2024-01-28T06:55:57.189Z,-3275.60
2024-01-28T06:58:25.278Z,-3275.80
2024-01-28T07:00:53.416Z,-3275.80
2024-01-28T07:03:23.013Z,-3275.70
2024-01-28T07:05:53.748Z,-3275.60
2024-01-28T07:08:21.880Z,-3275.60
2024-01-28T07:10:49.961Z,-3275.70
2024-01-28T07:13:18.350Z,-3275.80
2024-01-28T07:15:46.475Z,-3275.70
2024-01-28T07:18:15.122Z,-3275.80
2024-01-28T07:20:44.639Z,-3275.80
2024-01-28T07:23:12.715Z,-3275.60
2024-01-28T07:25:40.756Z,-3275.80
2024-01-28T07:28:08.882Z,-3275.80
2024-01-28T07:30:36.979Z,-3275.70
2024-01-28T07:33:09.232Z,-3275.70
2024-01-28T07:35:37.782Z,-3275.70
2024-01-28T07:38:07.523Z,-3275.90
2024-01-28T07:40:35.734Z,-3275.70
2024-01-28T07:43:04.641Z,-3275.80
2024-01-28T07:45:37.156Z,-3275.80
2024-01-28T07:48:05.717Z,-3276.00
2024-01-28T07:50:33.867Z,-3276.00
2024-01-28T07:53:02.132Z,-3276.10
2024-01-28T07:55:31.689Z,-3276.10
2024-01-28T07:58:00.071Z,-3276.10
2024-01-28T08:00:29.295Z,-3276.20
2024-01-28T08:02:57.629Z,-3276.10
2024-01-28T08:05:26.414Z,-3276.10
2024-01-28T08:07:54.618Z,-3276.10
2024-01-28T08:10:25.138Z,-3276.10
2024-01-28T08:12:55.159Z,-3276.20
2024-01-28T08:15:23.309Z,-3276.20
2024-01-28T08:17:52.470Z,-3276.30
2024-01-28T08:20:20.594Z,-3276.50
2024-01-28T08:22:48.734Z,-3276.40
2024-01-28T08:25:16.983Z,-3276.40
2024-01-28T08:27:45.834Z,-3276.50
2024-01-28T08:30:16.451Z,-3276.60
2024-01-28T08:32:44.571Z,-3276.70
2024-01-28T08:35:13.340Z,-3276.70
2024-01-28T08:37:41.453Z,-3276.70
2024-01-28T08:40:10.125Z,0.00
2024-01-28T08:42:38.421Z,-3276.60
2024-01-28T08:45:07.113Z,-3276.70
2024-01-28T08:47:37.016Z,-3276.60
2024-01-28T08:50:05.494Z,0.00
2024-01-28T08:52:33.811Z,0.00
2024-01-28T08:55:01.895Z,0.10
2024-01-28T08:57:30.055Z,0.00
2024-01-28T08:59:58.213Z,0.20
2024-01-28T09:02:26.299Z,0.10
2024-01-28T09:04:55.798Z,0.40
2024-01-28T09:07:23.903Z,0.30
2024-01-28T09:09:52.125Z,0.70
2024-01-28T09:12:20.265Z,0.60
2024-01-28T09:14:48.342Z,0.60
2024-01-28T09:17:19.983Z,0.50
2024-01-28T09:19:48.294Z,0.80
2024-01-28T09:22:17.748Z,0.90
2024-01-28T09:24:45.843Z,0.90
2024-01-28T09:27:13.887Z,0.90
2024-01-28T09:29:41.983Z,1.20
2024-01-28T09:32:10.455Z,1.30
2024-01-28T09:34:38.868Z,1.30
2024-01-28T09:37:08.481Z,1.50
2024-01-28T09:39:38.084Z,1.40
2024-01-28T09:42:11.196Z,1.70
2024-01-28T09:44:39.456Z,1.60
2024-01-28T09:47:07.603Z,1.90
2024-01-28T09:49:40.917Z,1.70
2024-01-28T09:52:10.152Z,1.80
2024-01-28T09:54:40.200Z,1.90
2024-01-28T09:57:10.111Z,2.00
2024-01-28T09:59:38.468Z,2.10
2024-01-28T10:02:06.978Z,2.20
2024-01-28T10:04:36.027Z,2.50
2024-01-28T10:07:04.611Z,2.30
2024-01-28T10:09:32.963Z,2.60
2024-01-28T10:12:03.338Z,2.70
2024-01-28T10:14:31.755Z,2.70
2024-01-28T10:16:59.948Z,2.50
2024-01-28T10:19:28.306Z,3.00
2024-01-28T10:21:57.171Z,3.10
2024-01-28T10:24:25.300Z,3.00
2024-01-28T10:26:53.365Z,3.30
2024-01-28T10:29:24.543Z,3.20
2024-01-28T10:31:52.830Z,3.20
2024-01-28T10:34:22.029Z,3.60
2024-01-28T10:36:50.762Z,3.60
2024-01-28T10:39:19.539Z,3.60
2024-01-28T10:41:49.359Z,3.90
2024-01-28T10:44:17.941Z,3.90
2024-01-28T10:46:48.981Z,4.00
2024-01-28T10:49:19.834Z,4.10
2024-01-28T10:51:48.151Z,4.30
2024-01-28T10:54:16.337Z,4.30
2024-01-28T10:56:45.487Z,4.70
2024-01-28T10:59:13.976Z,4.60
2024-01-28T11:01:42.385Z,4.60
2024-01-28T11:04:12.016Z,4.80
2024-01-28T11:06:42.461Z,4.80
2024-01-28T11:09:10.611Z,4.80
2024-01-28T11:11:39.270Z,4.80
2024-01-28T11:14:09.223Z,4.90
2024-01-28T11:16:38.306Z,5.00
2024-01-28T11:19:07.836Z,5.20
2024-01-28T11:21:39.405Z,5.20
2024-01-28T11:24:08.194Z,5.20
2024-01-28T11:26:38.603Z,5.20
2024-01-28T11:29:08.227Z,5.30
2024-01-28T11:31:37.998Z,5.00
2024-01-28T11:34:10.254Z,5.30
2024-01-28T11:36:40.430Z,5.40
2024-01-28T11:39:13.364Z,5.30
2024-01-28T11:41:43.842Z,5.50
2024-01-28T11:44:11.954Z,5.70
2024-01-28T11:46:40.532Z,5.70
2024-01-28T11:49:09.533Z,5.50
2024-01-28T11:51:37.765Z,6.00
2024-01-28T11:54:07.254Z,6.00
2024-01-28T11:56:35.866Z,6.10
2024-01-28T11:59:04.473Z,6.10
2024-01-28T12:01:33.385Z,6.20
2024-01-28T12:04:01.779Z,6.30
2024-01-28T12:06:31.726Z,6.50
2024-01-28T12:09:01.357Z,6.60
2024-01-28T12:11:32.353Z,6.30
2024-01-28T12:14:03.733Z,6.60
2024-01-28T12:16:33.321Z,6.70
2024-01-28T12:19:01.468Z,6.80
2024-01-28T12:21:29.884Z,6.60
2024-01-28T12:24:00.187Z,6.60
2024-01-28T12:26:27.633Z,6.70
2024-01-28T12:28:57.341Z,6.70
2024-01-28T12:31:25.455Z,6.70
2024-01-28T12:33:53.790Z,6.70
2024-01-28T12:36:22.189Z,6.90
2024-01-28T12:38:50.328Z,7.00
2024-01-28T12:41:19.449Z,7.00
2024-01-28T12:43:52.883Z,6.90
2024-01-28T12:46:23.032Z,7.10
2024-01-28T12:48:51.242Z,7.30
2024-01-28T12:51:20.365Z,7.20
2024-01-28T12:53:52.133Z,7.20
2024-01-28T12:56:20.859Z,7.20
2024-01-28T12:58:49.071Z,7.10
2024-01-28T13:01:18.193Z,7.40
2024-01-28T13:03:48.012Z,7.50
2024-01-28T13:06:16.359Z,7.30
2024-01-28T13:08:44.524Z,7.30
2024-01-28T13:11:12.620Z,7.30
2024-01-28T13:13:42.893Z,7.60
2024-01-28T13:16:11.445Z,7.50
2024-01-28T13:18:41.750Z,7.50
2024-01-28T13:21:11.253Z,7.50
2024-01-28T13:23:39.588Z,7.70
2024-01-28T13:26:07.750Z,7.70
2024-01-28T13:28:35.866Z,7.80
2024-01-28T13:31:03.938Z,7.70
2024-01-28T13:33:32.281Z,7.80
2024-01-28T13:36:00.637Z,7.70
2024-01-28T13:38:30.237Z,7.80
2024-01-28T13:40:58.398Z,7.80
2024-01-28T13:43:26.473Z,7.80
2024-01-28T13:45:54.754Z,7.80
2024-01-28T13:48:23.136Z,7.70
2024-01-28T13:50:51.341Z,7.80
2024-01-28T13:53:19.394Z,7.60
2024-01-28T13:55:48.878Z,7.60
2024-01-28T13:58:16.953Z,7.70
2024-01-28T14:00:45.114Z,7.80
2024-01-28T14:03:13.879Z,7.80
2024-01-28T14:05:43.100Z,7.80
2024-01-28T14:08:11.209Z,8.00
2024-01-28T14:10:39.746Z,8.00
2024-01-28T14:13:09.438Z,7.90
2024-01-28T14:15:39.507Z,7.90
2024-01-28T14:18:07.899Z,8.10
2024-01-28T14:20:36.023Z,8.10
2024-01-28T14:23:04.336Z,8.10
2024-01-28T14:25:32.420Z,8.10
2024-01-28T14:28:00.541Z,8.10
2024-01-28T14:30:30.132Z,8.10
2024-01-28T14:32:58.333Z,8.10
2024-01-28T14:35:26.540Z,8.10
2024-01-28T14:37:54.614Z,8.10
2024-01-28T14:40:22.739Z,8.20
2024-01-28T14:42:52.219Z,8.10
2024-01-28T14:45:20.519Z,8.00
2024-01-28T14:47:50.288Z,8.10
2024-01-28T14:50:18.545Z,8.10
2024-01-28T14:52:46.623Z,8.00
2024-01-28T14:55:14.805Z,8.10
2024-01-28T14:57:42.931Z,8.10
2024-01-28T15:00:11.608Z,7.90
2024-01-28T15:02:39.627Z,8.00
2024-01-28T15:05:09.709Z,8.00
2024-01-28T15:07:37.797Z,8.00
2024-01-28T15:10:07.514Z,7.90
2024-01-28T15:12:35.752Z,7.80
2024-01-28T15:15:03.943Z,7.80
2024-01-28T15:17:32.314Z,7.70
2024-01-28T15:20:00.672Z,7.60
2024-01-28T15:22:30.287Z,7.50
2024-01-28T15:25:00.391Z,7.80
2024-01-28T15:27:29.581Z,7.60
2024-01-28T15:29:57.900Z,7.70
2024-01-28T15:32:26.249Z,7.50
2024-01-28T15:34:54.596Z,7.50
2024-01-28T15:37:22.844Z,7.40
2024-01-28T15:39:52.877Z,7.30
2024-01-28T15:42:21.281Z,7.20
2024-01-28T15:44:49.433Z,7.00
2024-01-28T15:47:17.903Z,6.90
2024-01-28T15:49:46.165Z,7.00
2024-01-28T15:52:15.200Z,7.00
2024-01-28T15:54:43.374Z,6.80
2024-01-28T15:57:13.251Z,6.50
2024-01-28T16:02:15.427Z,6.60
2024-01-28T16:04:43.506Z,6.40
2024-01-28T16:07:12.239Z,6.50
2024-01-28T16:09:45.555Z,6.30
2024-01-28T16:12:21.832Z,6.40
2024-01-28T16:14:50.105Z,6.10
2024-01-28T16:17:19.978Z,6.10
2024-01-28T16:19:48.968Z,6.00
2024-01-28T16:22:17.121Z,6.00
2024-01-28T16:24:45.283Z,6.10
2024-01-28T16:27:13.575Z,5.80
2024-01-28T16:29:46.006Z,5.80
2024-01-28T16:32:14.828Z,5.50
2024-01-28T16:34:43.202Z,5.50
2024-01-28T16:37:11.452Z,5.50
2024-01-28T16:39:39.693Z,5.40
2024-01-28T16:42:07.819Z,5.50
2024-01-28T16:44:36.188Z,5.20
2024-01-28T16:47:06.120Z,5.00
2024-01-28T16:49:34.320Z,5.00
2024-01-28T16:52:02.683Z,4.80
2024-01-28T16:54:31.115Z,4.70
2024-01-28T16:56:59.352Z,4.50
2024-01-28T16:59:27.611Z,4.60
2024-01-28T17:01:56.795Z,4.40
2024-01-28T17:04:26.502Z,4.20
2024-01-28T17:06:54.680Z,4.30
2024-01-28T17:09:22.899Z,4.30
2024-01-28T17:11:51.261Z,4.30
2024-01-28T17:14:19.362Z,4.00
2024-01-28T17:16:48.361Z,4.10
2024-01-28T17:19:17.277Z,4.10
2024-01-28T17:21:46.871Z,4.00
2024-01-28T17:24:14.959Z,4.30
2024-01-28T17:26:44.534Z,4.30
2024-01-28T17:29:12.987Z,4.50
2024-01-28T17:31:41.069Z,4.40
2024-01-28T17:34:09.868Z,4.20
2024-01-28T17:36:38.379Z,4.20
2024-01-28T17:39:08.856Z,4.30
2024-01-28T17:41:37.100Z,4.30
2024-01-28T17:44:05.379Z,4.40
2024-01-28T17:46:34.023Z,4.60
2024-01-28T17:49:04.573Z,4.90
2024-01-28T17:51:33.206Z,4.70
2024-01-28T17:54:01.339Z,4.80
2024-01-28T17:56:31.061Z,4.70
2024-01-28T17:58:59.195Z,4.80
2024-01-28T18:01:28.589Z,5.00
2024-01-28T18:03:56.889Z,4.90
2024-01-28T18:06:25.713Z,5.00
2024-01-28T18:08:53.952Z,5.00
2024-01-28T18:11:22.098Z,4.90
2024-01-28T18:13:51.508Z,4.80
2024-01-28T18:16:19.951Z,5.00
2024-01-28T18:18:49.150Z,4.80
2024-01-28T18:21:17.492Z,4.70
2024-01-28T18:23:45.668Z,4.70
2024-01-28T18:26:13.756Z,4.70
2024-01-28T18:28:41.824Z,4.50
2024-01-28T18:31:11.286Z,4.50
2024-01-28T18:33:39.505Z,4.60
2024-01-28T18:36:10.022Z,4.60
2024-01-28T18:38:38.090Z,4.60
2024-01-28T18:41:09.966Z,4.50
2024-01-28T18:43:38.080Z,4.80
2024-01-28T18:46:06.379Z,4.60
2024-01-28T18:48:36.156Z,4.60
2024-01-28T18:51:05.838Z,4.50
2024-01-28T18:53:34.019Z,4.60
2024-01-28T18:56:02.097Z,4.60
2024-01-28T18:58:30.214Z,4.50
2024-01-28T19:00:59.010Z,4.60
2024-01-28T19:03:27.497Z,4.70
2024-01-28T19:05:57.055Z,4.60
2024-01-28T19:08:25.167Z,4.70
2024-01-28T19:10:53.536Z,4.80
2024-01-28T19:13:21.910Z,4.80
2024-01-28T19:15:50.127Z,4.70
2024-01-28T19:18:20.578Z,4.90
2024-01-28T19:20:48.740Z,4.60
2024-01-28T19:23:18.471Z,4.70
2024-01-28T19:25:46.705Z,4.80
2024-01-28T19:28:14.872Z,4.90
2024-01-28T19:30:42.955Z,5.20
2024-01-28T19:33:11.125Z,5.10
2024-01-28T19:35:43.569Z,4.90
2024-01-28T19:38:11.898Z,5.10
2024-01-28T19:40:42.653Z,5.10
2024-01-28T19:43:10.852Z,5.20
2024-01-28T19:45:39.557Z,5.10
2024-01-28T19:48:08.244Z,5.00
2024-01-28T19:50:36.506Z,5.10
2024-01-28T19:53:04.786Z,4.90
2024-01-28T19:55:32.841Z,4.70
2024-01-28T19:58:02.336Z,4.60
2024-01-28T20:00:31.733Z,4.20
2024-01-28T20:03:00.284Z,4.20
2024-01-28T20:05:28.444Z,4.30
2024-01-28T20:07:56.848Z,4.40
2024-01-28T20:10:25.522Z,4.40
2024-01-28T20:12:55.033Z,4.30
2024-01-28T20:15:24.660Z,4.10
2024-01-28T20:17:53.153Z,4.20
2024-01-28T20:20:22.009Z,4.30
2024-01-28T20:22:50.135Z,4.10
2024-01-28T20:25:18.390Z,4.10
2024-01-28T20:27:46.573Z,4.20
2024-01-28T20:30:14.825Z,3.80
2024-01-28T20:32:44.414Z,4.00
2024-01-28T20:35:14.654Z,3.80
2024-01-28T20:37:42.938Z,3.60
2024-01-28T20:40:11.258Z,3.70
2024-01-28T20:42:46.013Z,3.70
2024-01-28T20:45:15.361Z,3.70
2024-01-28T20:47:44.923Z,3.80
2024-01-28T20:50:13.088Z,3.70
2024-01-28T20:52:41.194Z,3.80
2024-01-28T20:55:09.865Z,3.90
2024-01-28T20:57:38.128Z,3.90
2024-01-28T21:00:07.081Z,4.10
2024-01-28T21:02:35.191Z,4.00
2024-01-28T21:05:05.534Z,4.00
2024-01-28T21:07:33.728Z,4.10
2024-01-28T21:10:01.997Z,4.00
2024-01-28T21:12:31.448Z,4.00
2024-01-28T21:14:59.738Z,4.20
2024-01-28T21:17:32.953Z,4.00
2024-01-28T21:20:01.792Z,4.10
2024-01-28T21:22:31.420Z,4.00
2024-01-28T21:24:59.741Z,4.10
2024-01-28T21:27:28.089Z,3.90
2024-01-28T21:29:56.340Z,3.90
2024-01-28T21:32:25.119Z,3.90
2024-01-28T21:34:54.491Z,4.00
2024-01-28T21:37:22.785Z,4.00
2024-01-28T21:39:52.231Z,4.00
2024-01-28T21:42:20.472Z,3.90
2024-01-28T21:44:48.574Z,4.00
2024-01-28T21:47:16.656Z,3.80
2024-01-28T21:49:45.095Z,4.00
2024-01-28T21:52:13.298Z,3.80
2024-01-28T21:54:41.488Z,3.80
2024-01-28T21:57:11.075Z,3.90
2024-01-28T21:59:39.901Z,4.10
2024-01-28T22:02:08.210Z,3.90
2024-01-28T22:04:36.406Z,4.00
2024-01-28T22:07:04.751Z,3.90
2024-01-28T22:09:32.897Z,3.80
2024-01-28T22:12:03.441Z,3.70
2024-01-28T22:14:34.542Z,3.50
2024-01-28T22:17:02.625Z,3.70
2024-01-28T22:19:30.708Z,3.60
2024-01-28T22:21:58.897Z,3.60
2024-01-28T22:24:27.297Z,3.70
2024-01-28T22:26:55.768Z,3.90
2024-01-28T22:29:23.877Z,3.70
2024-01-28T22:31:53.345Z,3.60
2024-01-28T22:34:23.688Z,3.60
2024-01-28T22:36:52.247Z,3.50
2024-01-28T22:39:20.520Z,3.50
2024-01-28T22:41:48.736Z,3.70
2024-01-28T22:44:16.819Z,3.70
2024-01-28T22:46:44.902Z,3.60
2024-01-28T22:49:14.624Z,3.60
2024-01-28T22:51:42.883Z,3.50
2024-01-28T22:54:11.005Z,3.50
2024-01-28T22:56:39.251Z,3.40
2024-01-28T22:59:07.365Z,3.50
2024-01-28T23:01:35.844Z,3.30
2024-01-28T23:04:04.229Z,3.70
2024-01-28T23:06:33.762Z,3.30
2024-01-28T23:09:01.914Z,3.40
2024-01-28T23:11:29.989Z,3.50
2024-01-28T23:13:58.296Z,3.50
2024-01-28T23:16:26.642Z,3.30
2024-01-28T23:18:54.782Z,3.40
2024-01-28T23:21:23.119Z,3.20
2024-01-28T23:23:52.560Z,3.30
2024-01-28T23:26:20.959Z,3.30
2024-01-28T23:28:49.019Z,3.10
2024-01-28T23:31:17.159Z,3.20
2024-01-28T23:33:45.497Z,3.10
2024-01-28T23:36:14.060Z,3.20
2024-01-28T23:38:45.209Z,3.10
2024-01-28T23:41:14.911Z,3.20
2024-01-28T23:43:43.000Z,3.20
2024-01-28T23:46:11.112Z,2.90
2024-01-28T23:48:39.641Z,3.00
2024-01-28T23:51:08.719Z,3.00
2024-01-28T23:53:36.837Z,3.00
2024-01-28T23:56:05.377Z,2.90
2024-01-28T23:58:34.817Z,3.10
